Time;durP1;ratioP1;P1;durP2;ratioP2;P2;SDS_P1;SDS_P2;PMS_P1;PMS_P2;Temp;Humidity;BMP_temperature;BMP_pressure;BME280_temperature;BME280_humidity;BME280_pressure;Samples;Min_cycle;Max_cycle;Signal;HPM_P1;HPM_P2
2023/05/14 00:03:50;;;;;;;5.78;5.05;;;19.00;67.30;;;;;;10232109;29;20027;-53
2023/05/14 00:08:51;;;;;;;5.47;4.95;;;19.10;67.40;;;;;;10215867;28;20360;-53
2023/05/14 00:13:52;;;;;;;5.50;5.00;;;19.00;67.40;;;;;;10231329;29;20546;-54
2023/05/14 00:18:52;;;;;;;4.72;4.25;;;19.00;67.60;;;;;;10248621;28;20106;-52
2023/05/14 00:23:53;;;;;;;5.55;4.55;;;19.00;67.50;;;;;;10248176;29;20067;-52
2023/05/14 00:28:54;;;;;;;5.07;4.57;;;19.00;67.60;;;;;;10248225;29;20106;-53
2023/05/14 00:33:54;;;;;;;7.20;6.10;;;19.00;67.70;;;;;;10286487;28;20094;-54
2023/05/14 00:38:55;;;;;;;5.82;5.22;;;19.00;67.70;;;;;;10261085;28;20131;-53
2023/05/14 00:43:56;;;;;;;7.07;6.00;;;19.00;67.80;;;;;;10230511;29;20118;-54
2023/05/14 00:48:58;;;;;;;8.02;6.00;;;19.00;67.80;;;;;;10247142;29;20102;-54
2023/05/14 00:53:58;;;;;;;4.72;4.32;;;19.00;67.60;;;;;;10270255;28;20029;-54
2023/05/14 00:58:59;;;;;;;5.75;5.10;;;19.00;67.80;;;;;;10286883;28;20039;-54
2023/05/14 01:04:00;;;;;;;5.57;5.07;;;19.00;67.70;;;;;;10286352;28;20697;-52
2023/05/14 01:09:50;;;;;;;6.28;5.68;;;18.90;67.60;;;;;;10301288;28;20414;-54
2023/05/14 01:15:22;;;;;;;5.97;5.38;;;19.00;67.60;;;;;;10266649;28;20512;-53
2023/05/14 01:20:25;;;;;;;5.20;4.70;;;18.90;67.50;;;;;;10285923;28;20023;-52
2023/05/14 01:25:26;;;;;;;5.97;5.47;;;18.90;67.60;;;;;;10284438;28;20027;-54
2023/05/14 01:30:46;;;;;;;5.78;4.75;;;18.90;67.60;;;;;;10285853;28;20027;-53
2023/05/14 01:35:48;;;;;;;5.25;4.60;;;18.90;67.50;;;;;;10299814;28;20026;-52
2023/05/14 01:40:49;;;;;;;5.43;4.82;;;18.90;67.60;;;;;;10300344;28;20023;-53
2023/05/14 01:45:50;;;;;;;5.78;5.28;;;18.90;67.70;;;;;;10299859;28;20058;-53
2023/05/14 01:50:51;;;;;;;8.23;5.55;;;18.90;67.70;;;;;;10271832;28;20023;-54
2023/05/14 01:55:52;;;;;;;5.80;5.22;;;18.90;67.70;;;;;;10283993;28;20417;-54
2023/05/14 02:00:52;;;;;;;5.88;5.22;;;18.90;67.60;;;;;;10284835;28;20085;-54
2023/05/14 02:05:53;;;;;;;5.65;5.05;;;18.90;67.80;;;;;;10284465;28;20026;-54
2023/05/14 02:10:54;;;;;;;6.38;5.78;;;18.80;67.60;;;;;;10284526;28;20109;-53
2023/05/14 02:15:54;;;;;;;5.25;4.75;;;18.90;67.80;;;;;;10266764;28;20074;-54
2023/05/14 02:20:56;;;;;;;6.93;5.75;;;18.90;67.80;;;;;;10283287;28;20126;-53
2023/05/14 02:25:56;;;;;;;6.93;6.22;;;18.90;68.40;;;;;;10283535;28;20066;-52
2023/05/14 02:30:59;;;;;;;6.07;5.45;;;18.80;67.70;;;;;;10298890;28;20098;-54
2023/05/14 02:36:00;;;;;;;6.82;5.28;;;18.80;67.70;;;;;;10294916;28;20083;-54
2023/05/14 02:41:01;;;;;;;5.63;4.80;;;18.80;67.80;;;;;;10224235;28;20029;-54
2023/05/14 02:46:02;;;;;;;6.53;5.93;;;18.80;67.80;;;;;;10298181;28;20038;-52
2023/05/14 02:51:03;;;;;;;6.10;5.38;;;18.80;67.80;;;;;;10278248;28;20012;-52
2023/05/14 02:56:04;;;;;;;7.43;5.55;;;18.80;67.70;;;;;;10243428;29;20070;-52
2023/05/14 03:01:05;;;;;;;5.43;4.93;;;18.70;67.80;;;;;;10260428;28;20019;-54
2023/05/14 03:06:06;;;;;;;6.53;5.70;;;18.70;67.80;;;;;;10297916;28;20027;-52
2023/05/14 03:11:06;;;;;;;5.38;4.88;;;18.80;67.80;;;;;;10283134;28;20370;-54
2023/05/14 03:16:07;;;;;;;6.20;5.15;;;18.80;67.80;;;;;;10297554;28;20049;-54
2023/05/14 03:21:08;;;;;;;5.93;5.20;;;18.70;67.80;;;;;;10282878;28;20030;-53
2023/05/14 03:26:10;;;;;;;6.47;5.63;;;18.70;67.80;;;;;;10263456;28;20051;-52
2023/05/14 03:31:10;;;;;;;7.38;6.25;;;18.70;67.80;;;;;;10245551;28;20083;-52
2023/05/14 03:36:11;;;;;;;6.63;6.03;;;18.70;67.70;;;;;;10214270;28;20159;-54
2023/05/14 03:41:12;;;;;;;6.35;5.75;;;18.70;67.80;;;;;;10232610;29;20131;-53
2023/05/14 03:46:12;;;;;;;6.38;5.57;;;18.70;67.70;;;;;;10237486;28;20134;-52
2023/05/14 03:51:13;;;;;;;6.72;5.95;;;18.70;67.80;;;;;;10268995;28;20643;-53
2023/05/14 03:56:14;;;;;;;6.03;5.43;;;18.70;67.80;;;;;;10268059;28;20107;-53
2023/05/14 04:01:14;;;;;;;6.28;5.68;;;18.70;67.70;;;;;;10257259;28;20110;-53
2023/05/14 04:06:15;;;;;;;5.90;5.32;;;18.60;67.70;;;;;;10248021;28;20463;-51
2023/05/14 04:11:16;;;;;;;6.28;5.68;;;18.60;67.70;;;;;;10247507;28;20494;-53
2023/05/14 04:16:16;;;;;;;6.80;6.13;;;18.60;67.60;;;;;;10224537;28;20051;-52
2023/05/14 04:21:17;;;;;;;6.97;5.47;;;18.60;67.40;;;;;;10226899;28;20032;-54
2023/05/14 04:26:18;;;;;;;6.35;5.75;;;18.60;67.60;;;;;;10247306;28;20122;-54
2023/05/14 04:31:18;;;;;;;6.03;5.43;;;18.60;67.60;;;;;;10248154;28;20019;-53
2023/05/14 04:36:19;;;;;;;6.55;5.85;;;18.60;67.60;;;;;;10296542;28;20121;-53
2023/05/14 04:41:20;;;;;;;7.10;5.93;;;18.60;67.60;;;;;;10246791;28;20103;-54
2023/05/14 04:46:21;;;;;;;6.45;5.82;;;18.60;67.60;;;;;;10235557;29;20130;-53
2023/05/14 04:51:22;;;;;;;6.30;5.68;;;18.60;67.70;;;;;;10229457;29;20025;-54
2023/05/14 04:56:24;;;;;;;6.95;6.35;;;18.60;67.50;;;;;;10245225;28;20119;-54
2023/05/14 05:01:24;;;;;;;6.95;6.22;;;18.60;67.20;;;;;;10253990;28;20039;-54
2023/05/14 05:06:25;;;;;;;7.40;6.70;;;18.60;67.50;;;;;;10286733;28;20035;-53
2023/05/14 05:11:26;;;;;;;7.35;6.40;;;18.60;67.80;;;;;;10301645;28;20019;-54
2023/05/14 05:16:26;;;;;;;6.82;6.03;;;18.60;67.90;;;;;;10283568;28;20507;-52
2023/05/14 05:21:27;;;;;;;7.22;5.70;;;18.60;68.00;;;;;;10228977;29;20485;-54
2023/05/14 05:26:28;;;;;;;7.78;6.97;;;18.60;67.70;;;;;;10246015;28;20028;-54
2023/05/14 05:31:29;;;;;;;6.95;6.03;;;18.60;67.50;;;;;;10236704;29;20062;-55
2023/05/14 05:36:30;;;;;;;8.88;6.50;;;18.60;67.40;;;;;;10228604;28;20049;-54
2023/05/14 05:41:31;;;;;;;7.72;6.28;;;18.80;68.10;;;;;;10253958;28;20544;-53
2023/05/14 05:46:32;;;;;;;7.22;6.38;;;18.80;67.70;;;;;;10285012;28;20165;-54
2023/05/14 05:51:32;;;;;;;11.80;7.40;;;18.90;68.50;;;;;;10261300;28;20031;-53
2023/05/14 05:56:33;;;;;;;14.95;7.30;;;18.90;68.90;;;;;;10227761;28;20175;-53
2023/05/14 06:01:34;;;;;;;14.43;7.28;;;18.90;68.80;;;;;;10226987;29;20664;-54
2023/05/14 06:06:34;;;;;;;14.63;6.65;;;18.90;68.50;;;;;;10227188;29;20370;-52
2023/05/14 06:11:35;;;;;;;11.10;6.57;;;18.90;68.40;;;;;;10244407;28;20050;-53
2023/05/14 06:16:36;;;;;;;11.95;6.85;;;18.90;68.40;;;;;;10226814;29;20142;-53
2023/05/14 06:21:36;;;;;;;11.23;7.25;;;18.80;68.90;;;;;;10244218;28;20023;-54
2023/05/14 06:26:37;;;;;;;9.07;5.88;;;18.90;68.90;;;;;;10243932;29;20027;-54
2023/05/14 06:31:38;;;;;;;16.48;7.05;;;18.90;69.20;;;;;;10226115;29;20046;-52
2023/05/14 06:36:39;;;;;;;16.42;7.45;;;19.00;69.20;;;;;;10256049;28;20107;-51
2023/05/14 06:41:39;;;;;;;17.13;9.68;;;19.10;68.90;;;;;;10210252;28;20162;-54
2023/05/14 06:46:40;;;;;;;18.42;10.80;;;19.30;69.10;;;;;;10239061;28;20059;-53
2023/05/14 06:51:41;;;;;;;42.00;31.63;;;19.40;70.40;;;;;;10240940;28;20024;-56
2023/05/14 06:56:42;;;;;;;141.23;126.20;;;19.50;69.40;;;;;;10225639;28;20114;-52
2023/05/14 07:01:42;;;;;;;387.33;350.83;;;19.50;71.50;;;;;;10243413;29;20106;-55
2023/05/14 07:06:43;;;;;;;126.57;97.90;;;19.60;70.90;;;;;;10226520;29;20031;-54
2023/05/14 07:11:44;;;;;;;58.60;44.17;;;19.60;70.20;;;;;;10250333;28;20023;-54
2023/05/14 07:16:45;;;;;;;40.92;30.20;;;19.80;69.40;;;;;;10230793;28;20122;-54
2023/05/14 07:21:46;;;;;;;24.02;19.90;;;19.80;69.40;;;;;;10261944;28;20030;-55
2023/05/14 07:26:47;;;;;;;21.17;17.00;;;19.80;69.00;;;;;;10226661;28;20570;-52
2023/05/14 07:31:47;;;;;;;19.27;13.15;;;19.60;69.70;;;;;;10243371;28;20163;-55
2023/05/14 07:36:48;;;;;;;24.38;15.02;;;19.50;70.00;;;;;;10265678;28;20111;-53
2023/05/14 07:41:50;;;;;;;19.38;12.60;;;19.40;70.20;;;;;;10228515;29;20023;-53
2023/05/14 07:46:50;;;;;;;14.68;11.25;;;19.40;70.10;;;;;;10237331;28;20118;-54
2023/05/14 07:51:51;;;;;;;14.63;10.73;;;19.40;70.10;;;;;;10213968;29;20446;-54
2023/05/14 07:56:51;;;;;;;12.05;9.88;;;19.30;69.80;;;;;;10247373;28;20718;-55
2023/05/14 08:01:52;;;;;;;13.02;8.82;;;19.30;69.10;;;;;;10249526;28;20137;-54
2023/05/14 08:06:55;;;;;;;11.98;9.77;;;19.30;69.00;;;;;;10301984;28;20114;-54
2023/05/14 08:11:55;;;;;;;14.88;9.30;;;19.30;69.00;;;;;;10286934;28;20018;-54
2023/05/14 08:16:56;;;;;;;11.80;8.68;;;19.30;69.00;;;;;;10284995;28;20043;-54
2023/05/14 08:21:57;;;;;;;17.67;9.13;;;19.30;69.60;;;;;;10261125;28;20519;-53
2023/05/14 08:26:57;;;;;;;10.98;8.32;;;19.30;69.10;;;;;;10227141;29;20074;-54
2023/05/14 08:31:58;;;;;;;11.77;8.07;;;19.30;69.10;;;;;;10243886;28;20122;-54
2023/05/14 08:36:59;;;;;;;12.68;8.15;;;19.30;69.00;;;;;;10258591;28;20585;-53
2023/05/14 08:42:00;;;;;;;10.18;7.95;;;19.30;69.00;;;;;;10245668;28;20114;-53
2023/05/14 08:47:02;;;;;;;10.20;7.95;;;19.40;69.00;;;;;;10228516;28;20483;-53
2023/05/14 08:52:03;;;;;;;10.20;7.32;;;19.40;68.80;;;;;;10227987;29;20156;-53
2023/05/14 08:57:07;;;;;;;9.25;7.75;;;19.40;68.80;;;;;;10244993;28;20478;-53
2023/05/14 09:02:10;;;;;;;8.60;7.68;;;19.40;68.90;;;;;;10262358;28;20023;-54
2023/05/14 09:07:11;;;;;;;10.63;6.95;;;19.30;69.00;;;;;;10284641;28;20035;-54
2023/05/14 09:12:12;;;;;;;15.40;7.03;;;19.30;68.90;;;;;;10299548;28;20366;-54
2023/05/14 09:17:12;;;;;;;7.93;6.22;;;19.30;68.90;;;;;;10264744;28;20431;-54
2023/05/14 09:22:16;;;;;;;7.63;6.82;;;19.40;69.10;;;;;;10261082;28;20493;-54
2023/05/14 09:27:20;;;;;;;10.25;6.65;;;19.40;69.00;;;;;;10268676;28;20457;-54
2023/05/14 09:32:20;;;;;;;11.45;6.72;;;19.30;68.90;;;;;;10284390;28;20023;-54
2023/05/14 09:37:21;;;;;;;7.80;7.00;;;19.40;68.80;;;;;;10269627;28;20545;-54
2023/05/14 09:42:22;;;;;;;6.75;6.05;;;19.40;68.80;;;;;;10212496;28;20407;-53
2023/05/14 09:47:23;;;;;;;7.32;6.13;;;19.40;68.70;;;;;;10228421;29;20398;-53
2023/05/14 09:52:24;;;;;;;10.55;7.05;;;19.40;68.70;;;;;;10262834;28;20019;-54
2023/05/14 09:57:25;;;;;;;9.45;7.35;;;19.40;68.60;;;;;;10285289;28;20033;-53
2023/05/14 10:02:35;;;;;;;9.15;6.82;;;19.40;68.60;;;;;;10285289;28;20853;-54
2023/05/14 10:07:43;;;;;;;9.82;6.00;;;19.40;68.60;;;;;;10233104;28;20058;-54
2023/05/14 10:12:51;;;;;;;7.78;6.80;;;19.50;68.50;;;;;;10227197;29;20094;-54
2023/05/14 10:17:57;;;;;;;13.57;7.27;;;19.50;68.50;;;;;;10243580;28;20087;-55
2023/05/14 10:22:58;;;;;;;9.10;6.47;;;19.50;68.70;;;;;;10226433;29;20021;-54
2023/05/14 10:27:59;;;;;;;10.35;7.07;;;19.60;68.70;;;;;;10226431;28;20359;-53
2023/05/14 10:33:17;;;;;;;13.43;7.25;;;19.60;68.60;;;;;;10234721;29;20016;-54
2023/05/14 10:38:22;;;;;;;17.70;7.63;;;19.60;68.50;;;;;;10238591;28;20669;-54
2023/05/14 10:43:28;;;;;;;12.93;7.82;;;19.60;68.50;;;;;;10226050;29;20366;-55
2023/05/14 10:48:28;;;;;;;8.90;6.28;;;19.80;68.20;;;;;;10243068;28;20039;-53
2023/05/14 10:53:38;;;;;;;11.88;7.55;;;19.80;68.20;;;;;;10243053;28;20648;-56
2023/05/14 10:58:42;;;;;;;11.10;7.63;;;19.80;68.20;;;;;;10243355;28;20035;-55
2023/05/14 11:03:45;;;;;;;12.25;6.15;;;19.80;68.30;;;;;;10247000;28;20081;-56
2023/05/14 11:08:49;;;;;;;8.10;6.78;;;19.80;68.30;;;;;;10282383;28;20027;-55
2023/05/14 11:13:50;;;;;;;14.23;5.90;;;19.80;68.30;;;;;;10265410;28;20074;-55
2023/05/14 11:19:02;;;;;;;9.00;5.68;;;19.70;68.50;;;;;;10262921;28;20023;-55
2023/05/14 11:24:04;;;;;;;9.27;6.07;;;19.80;68.50;;;;;;10254316;28;20035;-55
2023/05/14 11:29:04;;;;;;;12.75;7.03;;;19.70;68.50;;;;;;10282729;28;20606;-55
2023/05/14 11:34:06;;;;;;;8.00;6.50;;;19.60;67.80;;;;;;10283076;28;20031;-54
2023/05/14 11:39:07;;;;;;;10.15;7.82;;;19.60;67.30;;;;;;10228515;28;20070;-54
2023/05/14 11:44:10;;;;;;;12.07;7.15;;;19.70;68.10;;;;;;10250330;28;20074;-55
2023/05/14 11:49:11;;;;;;;9.57;6.80;;;19.70;68.10;;;;;;10253928;28;20016;-54
2023/05/14 11:54:13;;;;;;;11.60;6.63;;;19.80;68.20;;;;;;10274148;28;20026;-53
2023/05/14 11:59:15;;;;;;;11.18;6.75;;;19.80;68.00;;;;;;10279906;28;20080;-54
2023/05/14 12:04:21;;;;;;;14.80;7.65;;;19.90;67.90;;;;;;10256023;28;20040;-53
2023/05/14 12:09:22;;;;;;;8.50;6.93;;;19.90;68.10;;;;;;10229257;28;20644;-53
2023/05/14 12:14:23;;;;;;;7.93;6.47;;;19.80;67.90;;;;;;10230562;28;20150;-53
2023/05/14 12:19:24;;;;;;;7.85;5.88;;;19.90;67.90;;;;;;10254199;28;20075;-55
2023/05/14 12:24:25;;;;;;;10.20;7.60;;;19.90;67.70;;;;;;10266093;28;20035;-60
2023/05/14 12:29:26;;;;;;;11.10;7.50;;;19.90;68.20;;;;;;10233799;28;20050;-55
2023/05/14 12:34:27;;;;;;;8.73;6.63;;;19.90;68.00;;;;;;10282257;28;20031;-55
2023/05/14 12:39:29;;;;;;;8.82;7.18;;;19.90;68.00;;;;;;10252873;28;20063;-57
2023/05/14 12:44:30;;;;;;;10.63;6.13;;;19.90;68.70;;;;;;10230088;28;20490;-56
2023/05/14 12:49:31;;;;;;;11.35;7.15;;;20.10;67.50;;;;;;10273389;28;20023;-54
2023/05/14 12:54:31;;;;;;;8.88;6.75;;;20.10;67.70;;;;;;10267919;28;20473;-56
2023/05/14 12:59:32;;;;;;;12.85;6.70;;;20.00;67.30;;;;;;10278599;28;20114;-54
2023/05/14 13:04:32;;;;;;;12.98;6.88;;;20.10;67.90;;;;;;10246172;28;20037;-53
2023/05/14 13:09:33;;;;;;;12.10;6.10;;;20.20;67.30;;;;;;10259403;28;20110;-54
2023/05/14 13:14:35;;;;;;;14.35;6.30;;;20.20;67.80;;;;;;10222218;28;20051;-54
2023/05/14 13:19:35;;;;;;;10.48;7.07;;;20.30;68.00;;;;;;10291621;28;20069;-53
2023/05/14 13:24:36;;;;;;;11.25;6.40;;;20.20;67.30;;;;;;10245759;28;20111;-55
2023/05/14 13:29:37;;;;;;;10.20;6.38;;;20.20;68.00;;;;;;10245787;29;20808;-54
2023/05/14 13:34:37;;;;;;;12.35;6.68;;;20.30;68.10;;;;;;10251099;28;20037;-55
2023/05/14 13:39:38;;;;;;;15.85;6.50;;;20.20;68.00;;;;;;10251529;28;20538;-56
2023/05/14 13:44:39;;;;;;;8.88;6.40;;;20.10;68.30;;;;;;10245570;28;20066;-54
2023/05/14 13:49:39;;;;;;;7.97;7.05;;;20.00;68.50;;;;;;10263727;28;20047;-55
2023/05/14 13:54:40;;;;;;;12.27;6.35;;;19.90;68.60;;;;;;10243945;28;20694;-55
2023/05/14 13:59:41;;;;;;;11.18;6.88;;;19.90;68.70;;;;;;10255408;28;20536;-55
2023/05/14 14:04:41;;;;;;;8.82;6.70;;;19.80;68.60;;;;;;10238591;28;20121;-55
2023/05/14 14:09:43;;;;;;;10.25;6.72;;;19.80;68.60;;;;;;10276891;28;20126;-55
2023/05/14 14:14:44;;;;;;;7.15;6.45;;;19.80;68.50;;;;;;10244421;28;20054;-55
2023/05/14 14:19:45;;;;;;;9.85;6.47;;;19.80;68.50;;;;;;10236572;28;20046;-55
2023/05/14 14:24:46;;;;;;;6.78;6.00;;;19.80;68.50;;;;;;10258980;28;20118;-55
2023/05/14 14:29:46;;;;;;;10.50;6.97;;;19.80;68.60;;;;;;10225762;29;20106;-56
2023/05/14 14:34:47;;;;;;;10.48;6.38;;;19.80;68.50;;;;;;10248785;28;20415;-55
2023/05/14 14:39:48;;;;;;;8.52;6.25;;;19.80;68.60;;;;;;10227708;29;20063;-55
2023/05/14 14:44:48;;;;;;;7.45;6.63;;;19.80;68.60;;;;;;10227571;28;20059;-56
2023/05/14 14:49:49;;;;;;;7.88;5.85;;;19.70;68.50;;;;;;10244578;28;20062;-55
2023/05/14 14:54:50;;;;;;;7.40;5.38;;;19.70;68.60;;;;;;10258399;28;20728;-55
2023/05/14 14:59:51;;;;;;;7.93;5.95;;;19.70;68.70;;;;;;10226005;29;20030;-55
2023/05/14 15:04:53;;;;;;;8.40;5.85;;;19.70;68.60;;;;;;10232321;28;20087;-55
2023/05/14 15:09:54;;;;;;;7.30;6.20;;;19.70;68.70;;;;;;10240934;28;20385;-55
2023/05/14 15:14:54;;;;;;;6.70;5.95;;;19.70;68.80;;;;;;10284895;28;20074;-55
2023/05/14 15:19:55;;;;;;;9.05;5.65;;;19.70;72.70;;;;;;10256404;28;20021;-55
2023/05/14 15:24:56;;;;;;;8.48;6.20;;;19.80;72.30;;;;;;10245267;28;20122;-56
2023/05/14 15:29:56;;;;;;;7.40;6.38;;;20.10;70.80;;;;;;10248126;28;20103;-56
2023/05/14 15:34:57;;;;;;;8.60;6.43;;;20.30;69.70;;;;;;10246935;28;20856;-54
2023/05/14 15:39:58;;;;;;;8.23;7.28;;;20.60;68.80;;;;;;10231704;28;20127;-55
2023/05/14 15:44:59;;;;;;;13.20;8.55;;;20.70;68.30;;;;;;10229081;28;20502;-54
2023/05/14 15:50:00;;;;;;;14.40;9.35;;;20.80;69.10;;;;;;10252265;28;20439;-54
2023/05/14 15:55:01;;;;;;;12.57;11.30;;;20.80;71.50;;;;;;10246451;29;20545;-56
2023/05/14 16:00:11;;;;;;;12.80;11.40;;;20.70;73.40;;;;;;10230939;28;20024;-55
2023/05/14 16:05:13;;;;;;;12.43;11.23;;;20.70;74.80;;;;;;10248739;28;20031;-54
2023/05/14 16:10:13;;;;;;;11.85;10.45;;;20.80;72.70;;;;;;10258550;28;20074;-56
2023/05/14 16:15:14;;;;;;;11.70;10.23;;;20.70;72.50;;;;;;10215540;29;20113;-56
2023/05/14 16:20:15;;;;;;;11.35;9.30;;;20.50;72.70;;;;;;10215202;28;20023;-56
2023/05/14 16:25:17;;;;;;;10.20;9.30;;;20.30;72.60;;;;;;10230842;28;20130;-59
2023/05/14 16:30:18;;;;;;;9.48;8.45;;;20.20;72.20;;;;;;10248308;28;20016;-57
2023/05/14 16:35:18;;;;;;;9.60;8.55;;;20.10;72.10;;;;;;10254697;28;20041;-56
2023/05/14 16:40:21;;;;;;;10.77;7.75;;;20.10;71.80;;;;;;10231478;28;20661;-56
2023/05/14 16:45:22;;;;;;;9.52;7.90;;;20.10;71.20;;;;;;10208830;29;20039;-53
2023/05/14 16:50:22;;;;;;;9.60;6.88;;;20.10;71.10;;;;;;10246886;28;20415;-54
2023/05/14 16:55:23;;;;;;;9.40;7.70;;;20.10;70.20;;;;;;10227057;28;20553;-56
2023/05/14 17:00:24;;;;;;;8.32;7.40;;;20.10;70.30;;;;;;10263350;28;20023;-56
2023/05/14 17:05:25;;;;;;;8.52;6.75;;;20.00;70.10;;;;;;10286384;28;20117;-55
2023/05/14 17:10:26;;;;;;;7.70;6.88;;;20.00;69.80;;;;;;10268015;28;20023;-55
2023/05/14 17:15:27;;;;;;;8.82;6.75;;;20.00;69.80;;;;;;10228030;29;20050;-56
2023/05/14 17:20:27;;;;;;;8.80;6.25;;;19.90;69.30;;;;;;10223326;29;20656;-56
2023/05/14 17:25:28;;;;;;;7.88;6.90;;;20.00;69.40;;;;;;10239893;28;20031;-56
2023/05/14 17:30:29;;;;;;;11.55;7.05;;;19.90;69.20;;;;;;10265710;28;20772;-55
2023/05/14 17:35:34;;;;;;;11.45;7.00;;;19.90;69.50;;;;;;10291712;28;20035;-56
2023/05/14 17:40:35;;;;;;;8.10;6.82;;;19.90;69.40;;;;;;10254064;28;20011;-57
2023/05/14 17:45:35;;;;;;;10.27;6.65;;;19.90;69.70;;;;;;10242138;28;20037;-54
2023/05/14 17:50:38;;;;;;;14.35;6.95;;;19.90;70.00;;;;;;10227369;28;20106;-54
2023/05/14 17:55:42;;;;;;;8.93;7.20;;;19.90;70.40;;;;;;10245282;28;20125;-55
2023/05/14 18:00:43;;;;;;;17.20;6.93;;;19.90;70.30;;;;;;10252474;28;20027;-55
2023/05/14 18:05:43;;;;;;;16.08;7.47;;;20.00;70.60;;;;;;10216966;29;20050;-56
2023/05/14 18:10:44;;;;;;;11.95;7.35;;;20.00;70.40;;;;;;10247686;28;20069;-56
2023/05/14 18:15:45;;;;;;;9.60;6.55;;;19.90;70.60;;;;;;10244251;28;20134;-55
2023/05/14 18:20:45;;;;;;;11.30;6.95;;;19.90;70.70;;;;;;10233746;28;20074;-56
2023/05/14 18:25:47;;;;;;;12.43;6.60;;;19.80;70.70;;;;;;10210995;28;20134;-56
2023/05/14 18:30:48;;;;;;;9.98;6.85;;;19.80;70.60;;;;;;10244398;28;20114;-54
2023/05/14 18:35:50;;;;;;;6.95;6.25;;;19.80;70.90;;;;;;10221123;28;20170;-55
2023/05/14 18:40:50;;;;;;;7.72;6.38;;;19.80;70.70;;;;;;10244654;28;20079;-55
2023/05/14 18:45:52;;;;;;;8.23;6.03;;;19.80;70.90;;;;;;10226355;29;20110;-55
2023/05/14 18:50:53;;;;;;;8.65;6.72;;;19.70;70.90;;;;;;10226496;28;20071;-56
2023/05/14 18:55:54;;;;;;;8.93;6.70;;;19.70;70.90;;;;;;10243143;28;20110;-56
2023/05/14 19:00:56;;;;;;;8.98;6.35;;;19.70;71.00;;;;;;10233417;28;20015;-55
2023/05/14 19:05:57;;;;;;;8.75;6.10;;;19.60;70.90;;;;;;10268638;28;20639;-56
2023/05/14 19:10:57;;;;;;;8.75;6.97;;;19.60;71.00;;;;;;10244685;28;20102;-56
2023/05/14 19:15:59;;;;;;;8.27;6.68;;;19.60;71.00;;;;;;10305048;28;20147;-56
2023/05/14 19:21:00;;;;;;;9.52;6.28;;;19.60;70.90;;;;;;10266046;28;20020;-56
2023/05/14 19:26:00;;;;;;;8.88;6.28;;;19.60;71.10;;;;;;10232961;28;20023;-56
2023/05/14 19:31:01;;;;;;;10.43;6.70;;;19.60;71.00;;;;;;10208135;29;20606;-57
2023/05/14 19:36:03;;;;;;;8.38;6.70;;;19.60;71.10;;;;;;10245958;28;20110;-55
2023/05/14 19:41:04;;;;;;;10.02;6.85;;;19.60;70.80;;;;;;10229996;29;20027;-56
2023/05/14 19:46:04;;;;;;;9.43;5.88;;;19.60;70.90;;;;;;10246906;29;20114;-53
2023/05/14 19:51:05;;;;;;;6.25;5.10;;;19.50;71.00;;;;;;10230240;28;20043;-55
2023/05/14 19:56:06;;;;;;;8.07;5.05;;;19.50;71.20;;;;;;10230381;28;20030;-56
2023/05/14 20:01:07;;;;;;;7.78;5.07;;;19.50;71.20;;;;;;10264117;28;20450;-56
2023/05/14 20:06:07;;;;;;;8.05;5.25;;;19.40;71.30;;;;;;10286196;28;20656;-56
2023/05/14 20:11:08;;;;;;;7.05;5.13;;;19.50;71.30;;;;;;10301233;28;20037;-55
2023/05/14 20:16:09;;;;;;;6.90;5.38;;;19.50;71.40;;;;;;10287136;28;20497;-54
2023/05/14 20:21:10;;;;;;;6.90;6.15;;;19.40;71.30;;;;;;10287881;28;20061;-54
2023/05/14 20:26:10;;;;;;;7.75;5.25;;;19.40;71.30;;;;;;10273077;28;20032;-55
2023/05/14 20:31:11;;;;;;;7.03;6.38;;;19.40;71.30;;;;;;10230313;29;20483;-55
2023/05/14 20:36:12;;;;;;;5.00;4.45;;;19.40;71.20;;;;;;10230353;28;20114;-56
2023/05/14 20:41:13;;;;;;;6.03;5.32;;;19.40;71.10;;;;;;10230242;29;20037;-54
2023/05/14 20:46:14;;;;;;;7.78;6.05;;;19.40;70.90;;;;;;10230422;29;20030;-55
2023/05/14 20:51:15;;;;;;;6.38;5.78;;;19.40;70.80;;;;;;10229637;28;20978;-55
2023/05/14 20:56:16;;;;;;;7.68;5.80;;;19.40;70.70;;;;;;10265456;28;20053;-56
2023/05/14 21:01:17;;;;;;;5.63;5.10;;;19.40;70.70;;;;;;10301606;28;20063;-54
2023/05/14 21:06:18;;;;;;;7.78;5.88;;;19.30;70.70;;;;;;10262988;28;20483;-55
2023/05/14 21:11:20;;;;;;;8.18;5.07;;;19.30;70.70;;;;;;10246567;28;20042;-55
2023/05/14 21:16:21;;;;;;;8.50;5.38;;;19.30;70.70;;;;;;10228835;29;20504;-54
2023/05/14 21:21:22;;;;;;;5.88;4.68;;;19.30;70.80;;;;;;10245762;28;20019;-53
2023/05/14 21:26:24;;;;;;;6.25;5.65;;;19.30;70.80;;;;;;10237674;28;20027;-56
2023/05/14 21:31:25;;;;;;;5.80;5.20;;;19.30;70.70;;;;;;10211514;28;20105;-55
2023/05/14 21:36:26;;;;;;;6.00;5.40;;;19.30;70.70;;;;;;10258650;28;20510;-55
2023/05/14 21:41:26;;;;;;;6.60;4.97;;;19.30;70.70;;;;;;10266311;28;20027;-55
2023/05/14 21:46:27;;;;;;;6.68;5.97;;;19.30;70.80;;;;;;10275501;28;20479;-55
2023/05/14 21:51:28;;;;;;;7.50;5.35;;;19.20;70.60;;;;;;10244861;28;20414;-55
2023/05/14 21:56:29;;;;;;;7.70;5.20;;;19.20;70.60;;;;;;10227452;29;20058;-55
2023/05/14 22:01:30;;;;;;;6.43;5.32;;;19.20;70.60;;;;;;10270002;28;20023;-55
2023/05/14 22:06:31;;;;;;;6.10;5.47;;;19.20;70.60;;;;;;10284091;28;20090;-55
2023/05/14 22:11:31;;;;;;;7.40;4.95;;;19.20;70.60;;;;;;10299029;28;20023;-54
2023/05/14 22:16:32;;;;;;;5.57;5.03;;;19.20;70.60;;;;;;10266391;28;20518;-58
2023/05/14 22:21:33;;;;;;;5.53;4.97;;;19.20;70.60;;;;;;10281540;28;20434;-55
2023/05/14 22:26:34;;;;;;;7.20;6.07;;;19.20;71.20;;;;;;10274835;28;20449;-55
2023/05/14 22:31:34;;;;;;;6.55;5.75;;;19.20;70.70;;;;;;10253750;28;20034;-55
2023/05/14 22:36:35;;;;;;;6.07;5.15;;;19.20;70.70;;;;;;10255628;28;20533;-55
2023/05/14 22:41:36;;;;;;;5.68;5.13;;;19.20;70.60;;;;;;10242986;28;20020;-54
2023/05/14 22:46:36;;;;;;;6.18;5.28;;;19.10;70.60;;;;;;10250860;28;20118;-54
2023/05/14 22:51:37;;;;;;;6.47;5.00;;;19.10;70.60;;;;;;10242595;29;20031;-55
2023/05/14 22:56:38;;;;;;;6.47;5.88;;;19.10;70.60;;;;;;10242785;28;20023;-55
2023/05/14 23:01:38;;;;;;;6.32;5.68;;;19.10;70.60;;;;;;10209952;28;20102;-56
2023/05/14 23:06:39;;;;;;;7.13;6.22;;;19.10;70.60;;;;;;10225623;28;20036;-56
2023/05/14 23:11:40;;;;;;;5.90;5.28;;;19.10;70.60;;;;;;10243174;28;20117;-55
2023/05/14 23:16:41;;;;;;;6.03;5.43;;;19.10;70.60;;;;;;10247586;28;20194;-53
2023/05/14 23:21:41;;;;;;;5.95;5.35;;;19.00;70.50;;;;;;10297334;28;20527;-55
2023/05/14 23:26:42;;;;;;;6.10;5.50;;;19.10;70.60;;;;;;10297406;28;20550;-55
2023/05/14 23:31:43;;;;;;;6.18;4.97;;;19.00;70.70;;;;;;10251251;28;20478;-56
2023/05/14 23:36:44;;;;;;;6.57;5.95;;;19.00;70.50;;;;;;10242974;28;20051;-56
2023/05/14 23:41:45;;;;;;;6.03;5.25;;;19.00;70.50;;;;;;10242238;29;20019;-55
2023/05/14 23:46:45;;;;;;;6.15;5.05;;;19.00;70.50;;;;;;10225848;28;20039;-55
2023/05/14 23:51:46;;;;;;;6.20;5.63;;;19.00;70.50;;;;;;10249230;28;20090;-55
2023/05/14 23:56:47;;;;;;;5.80;5.25;;;19.00;70.40;;;;;;10232108;28;20035;-55
